Time,TemperatureF,DewpointF,PressureIn,WindDirection,WindDirectionDegrees,WindSpeedMPH,WindSpeedGustMPH,Humidity,HourlyPrecipIn,Conditions,Clouds,dailyrainin,SoftwareType,DateUTC
2013-01-14 00:04:00,3.0,0.0,30.28,West,262,1.0,2.0,87,0.00,,CLR,0.00,VWS V14.01,2013-01-14 06:04:00,
2013-01-14 00:10:00,3.1,0.1,30.28,West,260,3.0,3.0,87,0.00,,CLR,0.00,VWS V14.01,2013-01-14 06:10:00,
2013-01-14 00:16:00,3.3,0.6,30.28,West,274,1.0,2.0,88,0.00,,CLR,0.00,VWS V14.01,2013-01-14 06:16:00,
2013-01-14 00:22:00,3.6,0.9,30.28,West,273,2.0,2.0,88,0.00,,CLR,0.00,VWS V14.01,2013-01-14 06:22:00,
2013-01-14 00:28:00,3.8,0.8,30.28,West,269,1.0,3.0,87,0.00,,CLR,0.00,VWS V14.01,2013-01-14 06:28:00,
2013-01-14 00:34:00,3.9,1.1,30.28,West,263,2.0,2.0,88,0.00,,CLR,0.00,VWS V14.01,2013-01-14 06:34:00,
2013-01-14 00:40:00,3.8,0.8,30.28,West,264,2.0,2.0,87,0.00,,CLR,0.00,VWS V14.01,2013-01-14 06:40:00,
2013-01-14 00:46:00,3.4,0.4,30.28,West,274,2.0,2.0,87,0.00,,CLR,0.00,VWS V14.01,2013-01-14 06:46:00,
2013-01-14 00:52:00,3.2,0.2,30.29,West,268,2.0,2.0,87,0.00,,CLR,0.00,VWS V14.01,2013-01-14 06:52:00,
2013-01-14 00:58:00,3.2,0.4,30.29,West,266,2.0,3.0,88,0.00,,CLR,0.00,VWS V14.01,2013-01-14 06:58:00,
2013-01-14 01:04:00,3.3,0.6,30.30,West,270,2.0,2.0,88,0.00,,CLR,0.00,VWS V14.01,2013-01-14 07:04:00,
2013-01-14 01:10:00,3.6,0.9,30.30,WSW,255,1.0,2.0,88,0.00,,CLR,0.00,VWS V14.01,2013-01-14 07:10:00,
2013-01-14 01:16:00,3.8,1.0,30.30,WSW,255,1.0,2.0,88,0.00,,CLR,0.00,VWS V14.01,2013-01-14 07:16:00,
2013-01-14 01:22:00,3.6,0.9,30.30,WSW,249,1.0,1.0,88,0.00,,CLR,0.00,VWS V14.01,2013-01-14 07:22:00,
2013-01-14 01:28:00,3.7,0.9,30.30,WSW,253,0.0,2.0,88,0.00,,CLR,0.00,VWS V14.01,2013-01-14 07:28:00,
2013-01-14 01:34:00,3.7,0.9,30.31,West,270,1.0,2.0,88,0.00,,CLR,0.00,VWS V14.01,2013-01-14 07:34:00,
2013-01-14 01:40:00,3.8,1.0,30.30,West,259,0.0,1.0,88,0.00,,CLR,0.00,VWS V14.01,2013-01-14 07:40:00,
2013-01-14 01:46:00,3.9,1.4,30.30,WSW,255,1.0,1.0,89,0.00,,CLR,0.00,VWS V14.01,2013-01-14 07:46:00,
2013-01-14 01:53:00,4.0,1.5,30.30,West,264,2.0,2.0,89,0.00,,CLR,0.00,VWS V14.01,2013-01-14 07:53:00,
2013-01-14 01:58:00,4.2,1.4,30.30,West,267,0.0,1.0,88,0.00,,CLR,0.00,VWS V14.01,2013-01-14 07:58:00,
2013-01-14 02:05:00,3.9,1.1,30.30,West,267,0.0,0.0,88,0.00,,CLR,0.00,VWS V14.01,2013-01-14 08:05:00,
2013-01-14 02:11:00,3.4,0.6,30.30,West,267,0.0,0.0,88,0.00,,CLR,0.00,VWS V14.01,2013-01-14 08:11:00,
2013-01-14 02:17:00,2.7,-0.3,30.30,West,267,0.0,0.0,87,0.00,,CLR,0.00,VWS V14.01,2013-01-14 08:17:00,
2013-01-14 02:23:00,2.0,-1.0,30.31,West,267,0.0,0.0,87,0.00,,CLR,0.00,VWS V14.01,2013-01-14 08:23:00,
2013-01-14 02:29:00,1.8,-0.9,30.31,West,273,1.0,1.0,88,0.00,,CLR,0.00,VWS V14.01,2013-01-14 08:29:00,
2013-01-14 02:35:00,2.1,-0.2,30.31,West,277,1.0,1.0,90,0.00,,CLR,0.00,VWS V14.01,2013-01-14 08:35:00,
2013-01-14 02:41:00,2.5,0.2,30.31,West,266,1.0,1.0,90,0.00,,CLR,0.00,VWS V14.01,2013-01-14 08:41:00,
2013-01-14 02:47:00,2.9,0.6,30.31,WNW,288,0.0,1.0,90,0.00,,CLR,0.00,VWS V14.01,2013-01-14 08:47:00,
2013-01-14 02:53:00,2.9,0.4,30.31,WNW,288,0.0,0.0,89,0.00,,CLR,0.00,VWS V14.01,2013-01-14 08:53:00,
2013-01-14 02:58:00,2.7,0.2,30.31,WNW,288,0.0,1.0,89,0.00,,CLR,0.00,VWS V14.01,2013-01-14 08:58:00,
2013-01-14 03:03:00,2.5,0.0,30.31,West,276,0.0,0.0,89,0.00,,CLR,0.00,VWS V14.01,2013-01-14 09:03:00,
2013-01-14 03:09:00,2.3,-0.2,30.31,West,276,0.0,0.0,89,0.00,,CLR,0.00,VWS V14.01,2013-01-14 09:09:00,
2013-01-14 03:15:00,2.4,0.1,30.31,West,280,0.0,0.0,90,0.00,,CLR,0.00,VWS V14.01,2013-01-14 09:15:00,
2013-01-14 03:21:00,2.7,0.4,30.31,WSW,255,0.0,1.0,90,0.00,,CLR,0.00,VWS V14.01,2013-01-14 09:21:00,
2013-01-14 03:27:00,2.4,-0.1,30.31,WSW,255,0.0,0.0,89,0.00,,CLR,0.00,VWS V14.01,2013-01-14 09:27:00,
2013-01-14 03:33:00,2.1,-0.4,30.31,WSW,255,0.0,0.0,89,0.00,,CLR,0.00,VWS V14.01,2013-01-14 09:33:00,
2013-01-14 03:39:00,2.2,-0.3,30.31,WSW,255,0.0,0.0,89,0.00,,CLR,0.00,VWS V14.01,2013-01-14 09:39:00,
2013-01-14 03:45:00,1.7,-1.0,30.32,WSW,255,0.0,0.0,88,0.00,,CLR,0.00,VWS V14.01,2013-01-14 09:45:00,
2013-01-14 03:52:00,1.3,-1.2,30.32,West,263,1.0,1.0,89,0.00,,CLR,0.00,VWS V14.01,2013-01-14 09:52:00,
2013-01-14 03:58:00,1.8,-0.2,30.33,WSW,255,2.0,2.0,91,0.00,,CLR,0.00,VWS V14.01,2013-01-14 09:58:00,
2013-01-14 04:03:00,2.4,0.4,30.33,West,269,2.0,2.0,91,0.00,,CLR,0.00,VWS V14.01,2013-01-14 10:03:00,
2013-01-14 04:08:00,2.9,0.9,30.32,West,276,2.0,2.0,91,0.00,,CLR,0.00,VWS V14.01,2013-01-14 10:08:00,
2013-01-14 04:13:00,3.4,1.4,30.32,West,262,2.0,3.0,91,0.00,,CLR,0.00,VWS V14.01,2013-01-14 10:13:00,
2013-01-14 04:18:00,3.7,1.4,30.32,West,267,0.0,2.0,90,0.00,,CLR,0.00,VWS V14.01,2013-01-14 10:18:00,
2013-01-14 04:23:00,3.7,1.4,30.32,West,260,0.0,1.0,90,0.00,,CLR,0.00,VWS V14.01,2013-01-14 10:23:00,
2013-01-14 04:30:00,3.6,1.1,30.33,WSW,256,2.0,2.0,89,0.00,,CLR,0.00,VWS V14.01,2013-01-14 10:30:00,
2013-01-14 04:36:00,3.8,1.5,30.33,SW,232,1.0,4.0,90,0.00,,CLR,0.00,VWS V14.01,2013-01-14 10:36:00,
2013-01-14 04:42:00,4.0,1.7,30.33,West,273,2.0,3.0,90,0.00,,CLR,0.00,VWS V14.01,2013-01-14 10:42:00,
2013-01-14 04:48:00,4.0,1.5,30.33,West,273,2.0,2.0,89,0.00,,CLR,0.00,VWS V14.01,2013-01-14 10:48:00,
2013-01-14 04:53:00,4.0,1.5,30.33,West,264,3.0,3.0,89,0.00,,CLR,0.00,VWS V14.01,2013-01-14 10:53:00,
2013-01-14 04:58:00,4.1,1.6,30.33,West,267,3.0,4.0,89,0.00,,CLR,0.00,VWS V14.01,2013-01-14 10:58:00,
2013-01-14 05:03:00,4.2,1.7,30.33,WSW,257,3.0,4.0,89,0.00,,CLR,0.00,VWS V14.01,2013-01-14 11:03:00,
2013-01-14 05:08:00,4.3,1.8,30.34,WSW,238,6.0,6.0,89,0.00,,CLR,0.00,VWS V14.01,2013-01-14 11:08:00,
2013-01-14 05:14:00,4.5,2.0,30.34,WSW,257,4.0,4.0,89,0.00,,CLR,0.00,VWS V14.01,2013-01-14 11:14:00,
2013-01-14 05:20:00,4.5,1.7,30.34,West,277,3.0,4.0,88,0.00,,CLR,0.00,VWS V14.01,2013-01-14 11:20:00,
2013-01-14 05:26:00,4.3,1.5,30.34,WSW,257,2.0,4.0,88,0.00,,CLR,0.00,VWS V14.01,2013-01-14 11:26:00,
2013-01-14 05:32:00,4.3,1.5,30.34,WSW,255,2.0,3.0,88,0.00,,CLR,0.00,VWS V14.01,2013-01-14 11:32:00,
2013-01-14 05:38:00,4.3,1.5,30.34,WSW,237,1.0,2.0,88,0.00,,CLR,0.00,VWS V14.01,2013-01-14 11:38:00,
2013-01-14 05:43:00,4.3,1.8,30.35,WSW,255,0.0,2.0,89,0.00,,CLR,0.00,VWS V14.01,2013-01-14 11:43:00,
2013-01-14 05:48:00,4.6,2.1,30.34,SW,227,2.0,3.0,89,0.00,,CLR,0.00,VWS V14.01,2013-01-14 11:48:00,
2013-01-14 05:53:00,5.0,2.7,30.35,West,262,5.0,5.0,90,0.00,,CLR,0.00,VWS V14.01,2013-01-14 11:53:00,
2013-01-14 05:58:00,5.4,2.9,30.35,WSW,252,4.0,6.0,89,0.00,,CLR,0.00,VWS V14.01,2013-01-14 11:58:00,
2013-01-14 06:04:00,5.9,3.4,30.35,West,274,4.0,4.0,89,0.00,,CLR,0.00,VWS V14.01,2013-01-14 12:04:00,
2013-01-14 06:10:00,6.2,3.7,30.35,West,267,4.0,6.0,89,0.00,,CLR,0.00,VWS V14.01,2013-01-14 12:10:00,
2013-01-14 06:16:00,6.6,3.8,30.35,West,271,3.0,5.0,88,0.00,,CLR,0.00,VWS V14.01,2013-01-14 12:16:00,
2013-01-14 06:22:00,6.8,4.0,30.36,WNW,283,3.0,5.0,88,0.00,,CLR,0.00,VWS V14.01,2013-01-14 12:22:00,
2013-01-14 06:28:00,7.1,4.3,30.36,West,263,3.0,5.0,88,0.00,,CLR,0.00,VWS V14.01,2013-01-14 12:28:00,
2013-01-14 06:33:00,7.1,4.3,30.36,West,271,6.0,6.0,88,0.00,,CLR,0.00,VWS V14.01,2013-01-14 12:33:00,
2013-01-14 06:38:00,7.3,4.5,30.36,West,280,4.0,4.0,88,0.00,,CLR,0.00,VWS V14.01,2013-01-14 12:38:00,
2013-01-14 06:43:00,7.4,4.6,30.36,WSW,255,5.0,5.0,88,0.00,,CLR,0.00,VWS V14.01,2013-01-14 12:43:00,
2013-01-14 06:48:00,7.5,4.4,30.37,West,278,5.0,5.0,87,0.00,,CLR,0.00,VWS V14.01,2013-01-14 12:48:00,
2013-01-14 06:53:00,7.6,4.8,30.37,SW,235,6.0,6.0,88,0.00,,CLR,0.00,VWS V14.01,2013-01-14 12:53:00,
2013-01-14 06:58:00,7.7,4.7,30.37,West,264,5.0,6.0,87,0.00,,CLR,0.00,VWS V14.01,2013-01-14 12:58:00,
2013-01-14 07:03:00,7.7,4.7,30.38,West,269,3.0,6.0,87,0.00,,CLR,0.00,VWS V14.01,2013-01-14 13:03:00,
2013-01-14 07:08:00,7.8,4.7,30.38,West,266,4.0,6.0,87,0.00,,CLR,0.00,VWS V14.01,2013-01-14 13:08:00,
2013-01-14 07:13:00,7.9,4.8,30.38,WNW,284,6.0,6.0,87,0.00,,CLR,0.00,VWS V14.01,2013-01-14 13:13:00,
2013-01-14 07:18:00,7.9,4.8,30.38,West,277,4.0,6.0,87,0.00,,CLR,0.00,VWS V14.01,2013-01-14 13:18:00,
2013-01-14 07:25:00,8.0,5.2,30.38,West,264,3.0,5.0,88,0.00,,CLR,0.00,VWS V14.01,2013-01-14 13:25:00,
2013-01-14 07:31:00,8.0,5.2,30.38,West,271,4.0,5.0,88,0.00,,CLR,0.00,VWS V14.01,2013-01-14 13:31:00,
2013-01-14 07:37:00,8.2,5.4,30.38,West,274,4.0,6.0,88,0.00,,OVC033,0.00,VWS V14.01,2013-01-14 13:37:00,
2013-01-14 07:43:00,8.2,5.1,30.39,WNW,288,4.0,7.0,87,0.00,,OVC033,0.00,VWS V14.01,2013-01-14 13:43:00,
2013-01-14 07:48:00,8.3,5.2,30.39,West,269,6.0,6.0,87,0.00,,,0.00,VWS V14.01,2013-01-14 13:48:00,
2013-01-14 07:53:00,8.2,4.9,30.39,West,271,6.0,8.0,86,0.00,,,0.00,VWS V14.01,2013-01-14 13:53:00,
2013-01-14 07:58:00,8.3,5.0,30.39,West,266,5.0,7.0,86,0.00,,,0.00,VWS V14.01,2013-01-14 13:58:00,
2013-01-14 08:03:00,8.3,5.0,30.40,WNW,284,6.0,7.0,86,0.00,,,0.00,VWS V14.01,2013-01-14 14:03:00,
2013-01-14 08:08:00,8.3,5.0,30.40,West,273,5.0,8.0,86,0.00,,,0.00,VWS V14.01,2013-01-14 14:08:00,
2013-01-14 08:13:00,8.3,5.0,30.41,West,264,6.0,10.0,86,0.00,,,0.00,VWS V14.01,2013-01-14 14:13:00,
2013-01-14 08:18:00,8.3,5.0,30.41,West,266,6.0,7.0,86,0.00,,,0.00,VWS V14.01,2013-01-14 14:18:00,
2013-01-14 08:23:00,8.3,5.0,30.41,West,263,9.0,9.0,86,0.00,,,0.00,VWS V14.01,2013-01-14 14:23:00,
2013-01-14 08:28:00,8.4,5.1,30.41,WSW,250,8.0,9.0,86,0.00,,,0.00,VWS V14.01,2013-01-14 14:28:00,
2013-01-14 08:33:00,8.4,5.1,30.41,WSW,250,8.0,8.0,86,0.00,,,0.00,VWS V14.01,2013-01-14 14:33:00,
2013-01-14 08:38:00,8.5,5.2,30.41,West,269,6.0,8.0,86,0.00,,,0.00,VWS V14.01,2013-01-14 14:38:00,
2013-01-14 08:43:00,8.5,5.4,30.41,West,270,6.0,8.0,87,0.00,,,0.00,VWS V14.01,2013-01-14 14:43:00,
2013-01-14 08:48:00,8.6,5.5,30.42,WSW,253,5.0,9.0,87,0.00,,OVC029,0.00,VWS V14.01,2013-01-14 14:48:00,
2013-01-14 08:53:00,8.6,5.5,30.42,West,274,6.0,7.0,87,0.00,,OVC029,0.00,VWS V14.01,2013-01-14 14:53:00,
2013-01-14 08:58:00,8.7,5.9,30.42,WNW,300,5.0,7.0,88,0.00,,OVC029,0.00,VWS V14.01,2013-01-14 14:58:00,
2013-01-14 09:03:00,8.7,5.6,30.42,West,276,3.0,8.0,87,0.00,,,0.00,VWS V14.01,2013-01-14 15:03:00,
2013-01-14 09:08:00,8.7,5.4,30.43,NW,305,4.0,7.0,86,0.00,,,0.00,VWS V14.01,2013-01-14 15:08:00,
2013-01-14 09:13:00,8.7,5.4,30.42,West,271,4.0,6.0,86,0.00,,,0.00,VWS V14.01,2013-01-14 15:13:00,
2013-01-14 09:18:00,8.8,5.7,30.42,West,278,4.0,7.0,87,0.00,,,0.00,VWS V14.01,2013-01-14 15:18:00,
2013-01-14 09:23:00,8.8,5.5,30.42,WNW,287,5.0,8.0,86,0.00,,,0.00,VWS V14.01,2013-01-14 15:23:00,
2013-01-14 09:28:00,8.8,5.5,30.42,West,274,8.0,8.0,86,0.00,,,0.00,VWS V14.01,2013-01-14 15:28:00,
2013-01-14 09:33:00,8.7,5.4,30.42,WNW,301,2.0,9.0,86,0.00,,,0.00,VWS V14.01,2013-01-14 15:33:00,
2013-01-14 09:38:00,8.8,5.5,30.42,WNW,291,5.0,7.0,86,0.00,,,0.00,VWS V14.01,2013-01-14 15:38:00,
2013-01-14 09:45:00,8.8,5.5,30.43,WNW,288,3.0,5.0,86,0.00,,,0.00,VWS V14.01,2013-01-14 15:45:00,
2013-01-14 09:51:00,9.0,5.9,30.43,West,269,4.0,6.0,87,0.00,,,0.00,VWS V14.01,2013-01-14 15:51:00,
2013-01-14 09:57:00,9.0,5.7,30.43,West,259,8.0,9.0,86,0.00,,,0.00,VWS V14.01,2013-01-14 15:57:00,
2013-01-14 10:03:00,9.0,5.7,30.43,WSW,240,8.0,14.0,86,0.00,,,0.00,VWS V14.01,2013-01-14 16:03:00,
2013-01-14 10:09:00,9.0,5.7,30.43,West,271,8.0,12.0,86,0.00,,,0.00,VWS V14.01,2013-01-14 16:09:00,
2013-01-14 10:15:00,9.2,5.6,30.43,WSW,254,12.0,12.0,85,0.00,,,0.00,VWS V14.01,2013-01-14 16:15:00,
2013-01-14 10:21:00,9.3,5.7,30.43,West,273,6.0,13.0,85,0.00,,,0.00,VWS V14.01,2013-01-14 16:21:00,
2013-01-14 10:27:00,9.8,6.2,30.43,West,273,6.0,10.0,85,0.00,,,0.00,VWS V14.01,2013-01-14 16:27:00,
2013-01-14 10:33:00,10.1,6.2,30.43,WNW,295,4.0,8.0,84,0.00,,,0.00,VWS V14.01,2013-01-14 16:33:00,
2013-01-14 10:38:00,10.1,6.0,30.43,WNW,283,3.0,10.0,83,0.00,,,0.00,VWS V14.01,2013-01-14 16:38:00,
2013-01-14 10:43:00,10.0,5.3,30.43,West,267,5.0,7.0,81,0.00,,,0.00,VWS V14.01,2013-01-14 16:43:00,
2013-01-14 10:48:00,9.7,5.1,30.43,West,266,6.0,10.0,81,0.00,,,0.00,VWS V14.01,2013-01-14 16:48:00,
2013-01-14 10:53:00,9.5,4.9,30.43,West,270,6.0,10.0,81,0.00,,,0.00,VWS V14.01,2013-01-14 16:53:00,
2013-01-14 10:58:00,9.5,4.9,30.43,WNW,285,9.0,13.0,81,0.00,,,0.00,VWS V14.01,2013-01-14 16:58:00,
2013-01-14 11:03:00,9.5,5.1,30.43,West,266,6.0,11.0,82,0.00,,,0.00,VWS V14.01,2013-01-14 17:03:00,
2013-01-14 11:08:00,9.8,5.4,30.43,West,278,7.0,11.0,82,0.00,,,0.00,VWS V14.01,2013-01-14 17:08:00,
2013-01-14 11:13:00,10.4,6.0,30.43,WNW,300,5.0,10.0,82,0.00,,,0.00,VWS V14.01,2013-01-14 17:13:00,
2013-01-14 11:20:00,10.8,5.9,30.42,West,277,5.0,8.0,80,0.00,,,0.00,VWS V14.01,2013-01-14 17:20:00,
2013-01-14 11:26:00,11.3,6.3,30.42,WNW,294,6.0,6.0,80,0.00,,,0.00,VWS V14.01,2013-01-14 17:26:00,
2013-01-14 11:32:00,11.3,6.1,30.42,West,262,9.0,9.0,79,0.00,,,0.00,VWS V14.01,2013-01-14 17:32:00,
2013-01-14 11:38:00,11.1,5.9,30.42,West,270,4.0,5.0,79,0.00,,,0.00,VWS V14.01,2013-01-14 17:38:00,
2013-01-14 11:43:00,11.0,5.5,30.42,WSW,258,6.0,7.0,78,0.00,,,0.00,VWS V14.01,2013-01-14 17:43:00,
2013-01-14 11:48:00,10.4,5.5,30.42,West,276,5.0,8.0,80,0.00,,CLR,0.00,VWS V14.01,2013-01-14 17:48:00,
2013-01-14 11:53:00,10.6,5.9,30.41,West,271,4.0,8.0,81,0.00,,CLR,0.00,VWS V14.01,2013-01-14 17:53:00,
2013-01-14 11:58:00,10.8,5.9,30.41,WNW,291,3.0,7.0,80,0.00,,CLR,0.00,VWS V14.01,2013-01-14 17:58:00,
2013-01-14 12:03:00,11.2,6.2,30.41,WNW,287,3.0,5.0,80,0.00,,CLR,0.00,VWS V14.01,2013-01-14 18:03:00,
2013-01-14 12:08:00,11.2,5.7,30.41,WNW,286,3.0,7.0,78,0.00,,CLR,0.00,VWS V14.01,2013-01-14 18:08:00,
2013-01-14 12:13:00,10.8,5.3,30.41,WSW,256,6.0,8.0,78,0.00,,CLR,0.00,VWS V14.01,2013-01-14 18:13:00,
2013-01-14 12:18:00,10.8,5.6,30.41,WNW,289,4.0,8.0,79,0.00,,CLR,0.00,VWS V14.01,2013-01-14 18:18:00,
2013-01-14 12:23:00,10.5,5.3,30.41,WNW,293,6.0,11.0,79,0.00,,CLR,0.00,VWS V14.01,2013-01-14 18:23:00,
2013-01-14 12:28:00,10.4,5.5,30.41,West,267,5.0,11.0,80,0.00,,CLR,0.00,VWS V14.01,2013-01-14 18:28:00,
2013-01-14 12:33:00,10.6,5.9,30.40,West,280,7.0,11.0,81,0.00,,SCT021,0.00,VWS V14.01,2013-01-14 18:33:00,
2013-01-14 12:38:00,10.9,5.9,30.40,West,277,8.0,11.0,80,0.00,,SCT021,0.00,VWS V14.01,2013-01-14 18:38:00,
2013-01-14 12:44:00,11.1,6.2,30.40,WNW,283,4.0,8.0,80,0.00,,SCT021,0.00,VWS V14.01,2013-01-14 18:44:00,
2013-01-14 12:51:00,11.4,6.7,30.40,West,262,9.0,11.0,81,0.00,,SCT021,0.00,VWS V14.01,2013-01-14 18:51:00,
2013-01-14 12:57:00,11.7,6.5,30.40,WNW,283,5.0,10.0,79,0.00,,SCT021,0.00,VWS V14.01,2013-01-14 18:57:00,
2013-01-14 13:03:00,11.4,6.4,30.40,West,267,7.0,12.0,80,0.00,,SCT021,0.00,VWS V14.01,2013-01-14 19:03:00,
2013-01-14 13:08:00,12.0,7.6,30.40,West,265,10.0,10.0,82,0.00,,SCT021,0.00,VWS V14.01,2013-01-14 19:08:00,
2013-01-14 13:13:00,11.9,6.7,30.39,WNW,287,4.0,10.0,79,0.00,,SCT021,0.00,VWS V14.01,2013-01-14 19:13:00,
2013-01-14 13:18:00,11.9,6.9,30.39,West,266,3.0,8.0,80,0.00,,SCT021,0.00,VWS V14.01,2013-01-14 19:18:00,
2013-01-14 13:23:00,12.3,7.3,30.39,WNW,288,5.0,7.0,80,0.00,,SCT021,0.00,VWS V14.01,2013-01-14 19:23:00,
2013-01-14 13:28:00,12.8,7.5,30.39,WNW,296,3.0,7.0,79,0.00,,SCT021,0.00,VWS V14.01,2013-01-14 19:28:00,
2013-01-14 13:33:00,12.7,6.9,30.39,West,276,8.0,12.0,77,0.00,,SCT021,0.00,VWS V14.01,2013-01-14 19:33:00,
2013-01-14 13:38:00,12.5,6.7,30.39,West,271,8.0,12.0,77,0.00,,SCT021,0.00,VWS V14.01,2013-01-14 19:38:00,
2013-01-14 13:43:00,12.4,6.3,30.39,West,273,12.0,12.0,76,0.00,,SCT021,0.00,VWS V14.01,2013-01-14 19:43:00,
2013-01-14 13:48:00,12.4,6.9,30.40,West,260,11.0,13.0,78,0.00,,CLR,0.00,VWS V14.01,2013-01-14 19:48:00,
2013-01-14 13:53:00,12.1,6.3,30.40,West,270,3.0,11.0,77,0.00,,CLR,0.00,VWS V14.01,2013-01-14 19:53:00,
2013-01-14 13:58:00,11.9,5.8,30.39,WSW,253,7.0,13.0,76,0.00,,CLR,0.00,VWS V14.01,2013-01-14 19:58:00,
2013-01-14 14:05:00,12.0,6.5,30.39,SW,236,11.0,11.0,78,0.00,,SCT021,0.00,VWS V14.01,2013-01-14 20:05:00,
2013-01-14 14:11:00,12.3,6.8,30.40,West,268,8.0,8.0,78,0.00,,SCT021,0.00,VWS V14.01,2013-01-14 20:11:00,
2013-01-14 14:17:00,12.9,7.3,30.40,NW,311,3.0,7.0,78,0.00,,SCT021,0.00,VWS V14.01,2013-01-14 20:17:00,
2013-01-14 14:23:00,13.7,7.6,30.40,WNW,289,4.0,5.0,76,0.00,,SCT021,0.00,VWS V14.01,2013-01-14 20:23:00,
2013-01-14 14:28:00,13.9,7.2,30.40,West,279,4.0,8.0,74,0.00,,SCT021,0.00,VWS V14.01,2013-01-14 20:28:00,
2013-01-14 14:33:00,13.8,7.1,30.40,West,271,3.0,6.0,74,0.00,,SCT021,0.00,VWS V14.01,2013-01-14 20:33:00,
2013-01-14 14:38:00,13.8,7.4,30.40,WNW,290,3.0,5.0,75,0.00,,SCT021,0.00,VWS V14.01,2013-01-14 20:38:00,
2013-01-14 14:43:00,14.2,7.4,30.40,West,271,4.0,4.0,74,0.00,,SCT021,0.00,VWS V14.01,2013-01-14 20:43:00,
2013-01-14 14:48:00,14.0,7.0,30.40,West,272,3.0,5.0,73,0.00,,SCT021,0.00,VWS V14.01,2013-01-14 20:48:00,
2013-01-14 14:53:00,13.9,7.2,30.40,NW,311,3.0,5.0,74,0.00,,SCT021,0.00,VWS V14.01,2013-01-14 20:53:00,
2013-01-14 14:58:00,13.9,7.2,30.40,West,264,2.0,6.0,74,0.00,,SCT021,0.00,VWS V14.01,2013-01-14 20:58:00,
2013-01-14 15:03:00,13.5,6.5,30.40,West,260,5.0,5.0,73,0.00,,CLR,0.00,VWS V14.01,2013-01-14 21:03:00,
2013-01-14 15:08:00,13.6,7.2,30.40,WNW,299,1.0,5.0,75,0.00,,CLR,0.00,VWS V14.01,2013-01-14 21:08:00,
2013-01-14 15:13:00,13.9,6.9,30.40,West,266,3.0,6.0,73,0.00,,CLR,0.00,VWS V14.01,2013-01-14 21:13:00,
2013-01-14 15:18:00,13.5,6.5,30.40,West,277,2.0,6.0,73,0.00,,CLR,0.00,VWS V14.01,2013-01-14 21:18:00,
2013-01-14 15:23:00,13.5,6.5,30.40,WNW,284,3.0,6.0,73,0.00,,CLR,0.00,VWS V14.01,2013-01-14 21:23:00,
2013-01-14 15:28:00,13.5,7.1,30.40,WSW,241,2.0,4.0,75,0.00,,CLR,0.00,VWS V14.01,2013-01-14 21:28:00,
2013-01-14 15:33:00,13.9,7.2,30.39,WSW,243,0.0,3.0,74,0.00,,CLR,0.00,VWS V14.01,2013-01-14 21:33:00,
2013-01-14 15:39:00,14.3,7.6,30.39,NW,308,0.0,2.0,74,0.00,,CLR,0.00,VWS V14.01,2013-01-14 21:39:00,
2013-01-14 15:45:00,14.2,6.5,30.39,West,279,3.0,4.0,71,0.00,,CLR,0.00,VWS V14.01,2013-01-14 21:45:00,
2013-01-14 15:51:00,13.6,6.3,30.40,West,262,1.0,3.0,72,0.00,,CLR,0.00,VWS V14.01,2013-01-14 21:51:00,
2013-01-14 15:57:00,13.4,6.1,30.40,WSW,256,2.0,3.0,72,0.00,,CLR,0.00,VWS V14.01,2013-01-14 21:57:00,
2013-01-14 16:03:00,13.1,6.1,30.40,West,259,2.0,3.0,73,0.00,,CLR,0.00,VWS V14.01,2013-01-14 22:03:00,
2013-01-14 16:10:00,12.8,5.8,30.40,West,271,2.0,3.0,73,0.00,,CLR,0.00,VWS V14.01,2013-01-14 22:10:00,
2013-01-14 16:16:00,12.4,5.4,30.40,West,276,3.0,4.0,73,0.00,,CLR,0.00,VWS V14.01,2013-01-14 22:16:00,
2013-01-14 16:22:00,12.1,5.4,30.40,WSW,253,3.0,4.0,74,0.00,,CLR,0.00,VWS V14.01,2013-01-14 22:22:00,
2013-01-14 16:28:00,12.0,5.6,30.40,WSW,255,2.0,3.0,75,0.00,,CLR,0.00,VWS V14.01,2013-01-14 22:28:00,
2013-01-14 16:33:00,12.1,5.7,30.40,West,266,2.0,2.0,75,0.00,,CLR,0.00,VWS V14.01,2013-01-14 22:33:00,
2013-01-14 16:38:00,11.9,5.2,30.40,West,262,0.0,2.0,74,0.00,,CLR,0.00,VWS V14.01,2013-01-14 22:38:00,
2013-01-14 16:43:00,11.5,5.1,30.40,West,266,0.0,1.0,75,0.00,,CLR,0.00,VWS V14.01,2013-01-14 22:43:00,
2013-01-14 16:48:00,11.0,4.6,30.40,West,266,0.0,1.0,75,0.00,,CLR,0.00,VWS V14.01,2013-01-14 22:48:00,
2013-01-14 16:53:00,10.5,4.2,30.40,West,266,0.0,0.0,75,0.00,,CLR,0.00,VWS V14.01,2013-01-14 22:53:00,
2013-01-14 16:58:00,9.9,3.9,30.40,WSW,243,0.0,0.0,76,0.00,,CLR,0.00,VWS V14.01,2013-01-14 22:58:00,
2013-01-14 17:03:00,9.3,3.8,30.40,WSW,243,0.0,0.0,78,0.00,,CLR,0.00,VWS V14.01,2013-01-14 23:03:00,
2013-01-14 17:08:00,8.7,3.3,30.40,WSW,243,0.0,0.0,78,0.00,,CLR,0.00,VWS V14.01,2013-01-14 23:08:00,
2013-01-14 17:13:00,8.0,2.6,30.40,WSW,243,0.0,0.0,78,0.00,,CLR,0.00,VWS V14.01,2013-01-14 23:13:00,
2013-01-14 17:18:00,7.2,1.8,30.40,WSW,243,0.0,0.0,78,0.00,,CLR,0.00,VWS V14.01,2013-01-14 23:18:00,
2013-01-14 17:23:00,6.5,1.4,30.40,WSW,244,0.0,0.0,79,0.00,,CLR,0.00,VWS V14.01,2013-01-14 23:23:00,
2013-01-14 17:28:00,5.8,1.0,30.40,WSW,243,0.0,0.0,80,0.00,,CLR,0.00,VWS V14.01,2013-01-14 23:28:00,
2013-01-14 17:33:00,5.3,0.8,30.39,WSW,243,0.0,0.0,81,0.00,,CLR,0.00,VWS V14.01,2013-01-14 23:33:00,
2013-01-14 17:38:00,5.2,1.2,30.39,WSW,243,0.0,0.0,83,0.00,,CLR,0.00,VWS V14.01,2013-01-14 23:38:00,
2013-01-14 17:43:00,5.5,2.0,30.39,WSW,243,0.0,0.0,85,0.00,,CLR,0.00,VWS V14.01,2013-01-14 23:43:00,
2013-01-14 17:50:00,5.4,1.9,30.39,WSW,243,0.0,0.0,85,0.00,,CLR,0.00,VWS V14.01,2013-01-14 23:50:00,
2013-01-14 17:56:00,5.3,1.8,30.39,WSW,243,0.0,0.0,85,0.00,,CLR,0.00,VWS V14.01,2013-01-14 23:56:00,
2013-01-14 18:02:00,5.0,1.7,30.39,WSW,243,0.0,0.0,86,0.00,,CLR,0.00,VWS V14.01,2013-01-15 00:02:00,
2013-01-14 18:08:00,4.7,1.2,30.39,SE,131,0.0,0.0,85,0.00,,CLR,0.00,VWS V14.01,2013-01-15 00:08:00,
2013-01-14 18:13:00,4.5,1.2,30.39,SE,131,0.0,1.0,86,0.00,,CLR,0.00,VWS V14.01,2013-01-15 00:13:00,
2013-01-14 18:20:00,4.4,1.1,30.39,SE,131,0.0,0.0,86,0.00,,CLR,0.00,VWS V14.01,2013-01-15 00:20:00,
2013-01-14 18:26:00,4.0,0.8,30.39,SE,131,0.0,0.0,86,0.00,,CLR,0.00,VWS V14.01,2013-01-15 00:26:00,
2013-01-14 18:32:00,3.2,-0.3,30.39,SE,131,0.0,0.0,85,0.00,,,0.00,VWS V14.01,2013-01-15 00:32:00,
2013-01-14 18:38:00,2.6,-0.9,30.38,SE,131,0.0,0.0,85,0.00,,,0.00,VWS V14.01,2013-01-15 00:38:00,
2013-01-14 18:43:00,2.8,-0.2,30.39,SE,131,0.0,0.0,87,0.00,,,0.00,VWS V14.01,2013-01-15 00:43:00,
2013-01-14 18:48:00,2.5,-0.5,30.39,SE,131,0.0,0.0,87,0.00,,CLR,0.00,VWS V14.01,2013-01-15 00:48:00,
2013-01-14 18:53:00,2.1,-1.1,30.39,SE,131,0.0,0.0,86,0.00,,CLR,0.00,VWS V14.01,2013-01-15 00:53:00,
2013-01-14 19:00:00,2.0,-1.0,30.38,SE,131,0.0,0.0,87,0.00,,CLR,0.00,VWS V14.01,2013-01-15 01:00:00,
2013-01-14 19:06:00,2.4,-0.3,30.38,SE,131,0.0,0.0,88,0.00,,CLR,0.00,VWS V14.01,2013-01-15 01:06:00,
2013-01-14 19:12:00,2.6,-0.1,30.38,SE,131,0.0,0.0,88,0.00,,CLR,0.00,VWS V14.01,2013-01-15 01:12:00,
2013-01-14 19:18:00,2.6,-0.1,30.38,SE,131,0.0,0.0,88,0.00,,,0.00,VWS V14.01,2013-01-15 01:18:00,
2013-01-14 19:23:00,2.3,-0.7,30.38,SE,131,0.0,0.0,87,0.00,,,0.00,VWS V14.01,2013-01-15 01:23:00,
2013-01-14 19:28:00,2.0,-1.0,30.38,SE,131,0.0,0.0,87,0.00,,,0.00,VWS V14.01,2013-01-15 01:28:00,
2013-01-14 19:33:00,2.0,-0.7,30.37,SE,131,0.0,0.0,88,0.00,,CLR,0.00,VWS V14.01,2013-01-15 01:33:00,
2013-01-14 19:38:00,2.0,-0.7,30.37,SE,131,0.0,0.0,88,0.00,,CLR,0.00,VWS V14.01,2013-01-15 01:38:00,
2013-01-14 19:43:00,2.0,-0.7,30.37,SE,131,0.0,0.0,88,0.00,,CLR,0.00,VWS V14.01,2013-01-15 01:43:00,
2013-01-14 19:48:00,2.1,-0.6,30.37,SE,131,0.0,0.0,88,0.00,,CLR,0.00,VWS V14.01,2013-01-15 01:48:00,
2013-01-14 19:53:00,2.2,-0.3,30.37,SE,131,0.0,0.0,89,0.00,,CLR,0.00,VWS V14.01,2013-01-15 01:53:00,
2013-01-14 19:58:00,2.4,-0.1,30.37,East,100,0.0,2.0,89,0.00,,CLR,0.00,VWS V14.01,2013-01-15 01:58:00,
2013-01-14 20:04:00,2.5,0.0,30.37,East,85,2.0,2.0,89,0.00,,CLR,0.00,VWS V14.01,2013-01-15 02:04:00,
2013-01-14 20:10:00,3.0,0.5,30.37,East,81,0.0,1.0,89,0.00,,CLR,0.00,VWS V14.01,2013-01-15 02:10:00,
2013-01-14 20:17:00,3.2,0.7,30.37,East,80,0.0,0.0,89,0.00,,CLR,0.00,VWS V14.01,2013-01-15 02:17:00,
2013-01-14 20:23:00,3.1,0.4,30.36,East,80,1.0,1.0,88,0.00,,CLR,0.00,VWS V14.01,2013-01-15 02:23:00,
2013-01-14 20:28:00,2.8,0.1,30.36,East,82,1.0,1.0,88,0.00,,CLR,0.00,VWS V14.01,2013-01-15 02:28:00,
2013-01-14 20:33:00,2.9,0.4,30.36,East,79,0.0,1.0,89,0.00,,CLR,0.00,VWS V14.01,2013-01-15 02:33:00,
2013-01-14 20:38:00,3.1,0.6,30.36,East,79,0.0,1.0,89,0.00,,CLR,0.00,VWS V14.01,2013-01-15 02:38:00,
2013-01-14 20:43:00,3.1,0.6,30.36,East,79,0.0,0.0,89,0.00,,CLR,0.00,VWS V14.01,2013-01-15 02:43:00,
2013-01-14 20:48:00,3.2,0.7,30.36,East,79,0.0,1.0,89,0.00,,CLR,0.00,VWS V14.01,2013-01-15 02:48:00,
2013-01-14 20:53:00,3.2,0.7,30.36,East,98,1.0,1.0,89,0.00,,CLR,0.00,VWS V14.01,2013-01-15 02:53:00,
2013-01-14 20:58:00,3.3,0.8,30.35,ENE,78,1.0,1.0,89,0.00,,CLR,0.00,VWS V14.01,2013-01-15 02:58:00,
2013-01-14 21:05:00,3.6,1.1,30.35,East,79,0.0,1.0,89,0.00,,CLR,0.00,VWS V14.01,2013-01-15 03:05:00,
2013-01-14 21:11:00,3.8,1.3,30.34,ENE,77,0.0,0.0,89,0.00,,CLR,0.00,VWS V14.01,2013-01-15 03:11:00,
2013-01-14 21:17:00,3.8,1.3,30.34,ENE,77,0.0,1.0,89,0.00,,CLR,0.00,VWS V14.01,2013-01-15 03:17:00,
2013-01-14 21:23:00,3.9,1.4,30.34,ENE,78,1.0,1.0,89,0.00,,CLR,0.00,VWS V14.01,2013-01-15 03:23:00,
2013-01-14 21:29:00,4.2,1.7,30.34,ENE,78,0.0,0.0,89,0.00,,CLR,0.00,VWS V14.01,2013-01-15 03:29:00,
2013-01-14 21:35:00,4.2,1.7,30.34,East,91,0.0,0.0,89,0.00,,CLR,0.00,VWS V14.01,2013-01-15 03:35:00,
2013-01-14 21:41:00,3.9,1.4,30.33,East,79,0.0,0.0,89,0.00,,CLR,0.00,VWS V14.01,2013-01-15 03:41:00,
2013-01-14 21:47:00,3.9,1.4,30.33,East,79,0.0,0.0,89,0.00,,CLR,0.00,VWS V14.01,2013-01-15 03:47:00,
2013-01-14 21:53:00,4.0,1.5,30.33,East,79,0.0,0.0,89,0.00,,CLR,0.00,VWS V14.01,2013-01-15 03:53:00,
2013-01-14 21:59:00,3.9,1.4,30.33,East,86,0.0,0.0,89,0.00,,CLR,0.00,VWS V14.01,2013-01-15 03:59:00,
2013-01-14 22:05:00,3.8,1.3,30.33,East,95,0.0,0.0,89,0.00,,CLR,0.00,VWS V14.01,2013-01-15 04:05:00,
2013-01-14 22:11:00,3.6,1.1,30.33,East,96,1.0,2.0,89,0.00,,CLR,0.00,VWS V14.01,2013-01-15 04:11:00,
2013-01-14 22:17:00,4.0,1.5,30.32,ENE,75,1.0,2.0,89,0.00,,CLR,0.00,VWS V14.01,2013-01-15 04:17:00,
2013-01-14 22:23:00,4.9,2.8,30.32,ENE,70,0.0,3.0,91,0.00,,CLR,0.00,VWS V14.01,2013-01-15 04:23:00,
2013-01-14 22:28:00,6.0,3.9,30.32,East,101,1.0,3.0,91,0.00,,CLR,0.00,VWS V14.01,2013-01-15 04:28:00,
2013-01-14 22:33:00,7.4,5.6,30.32,SE,138,0.0,2.0,92,0.00,,CLR,0.00,VWS V14.01,2013-01-15 04:33:00,
2013-01-14 22:39:00,8.5,6.7,30.32,ESE,105,1.0,1.0,92,0.00,,CLR,0.00,VWS V14.01,2013-01-15 04:39:00,
2013-01-14 22:45:00,9.3,7.4,30.32,SE,132,0.0,3.0,92,0.00,,CLR,0.00,VWS V14.01,2013-01-15 04:45:00,
2013-01-14 22:51:00,10.1,8.2,30.32,SE,137,1.0,3.0,92,0.00,,CLR,0.00,VWS V14.01,2013-01-15 04:51:00,
2013-01-14 22:57:00,10.3,8.2,30.32,SW,228,1.0,1.0,91,0.00,,CLR,0.00,VWS V14.01,2013-01-15 04:57:00,
2013-01-14 23:02:00,10.5,8.4,30.32,WSW,238,2.0,2.0,91,0.00,,CLR,0.00,VWS V14.01,2013-01-15 05:02:00,
2013-01-14 23:03:00,10.5,8.4,30.32,SW,215,3.0,3.0,91,0.00,,CLR,0.00,VWS V14.01,2013-01-15 05:03:00,
2013-01-14 23:04:00,10.5,8.4,30.32,SW,224,2.0,3.0,91,0.00,,CLR,0.00,VWS V14.01,2013-01-15 05:04:00,
2013-01-14 23:08:00,10.6,8.7,30.31,SE,129,2.0,6.0,92,0.00,,CLR,0.00,VWS V14.01,2013-01-15 05:08:00,
2013-01-14 23:13:00,10.9,9.0,30.31,SSE,150,3.0,5.0,92,0.00,,CLR,0.00,VWS V14.01,2013-01-15 05:13:00,
2013-01-14 23:18:00,11.3,9.2,30.31,SW,224,4.0,8.0,91,0.00,,CLR,0.00,VWS V14.01,2013-01-15 05:18:00,
2013-01-14 23:23:00,11.6,9.2,30.31,SSW,193,5.0,7.0,90,0.00,,CLR,0.00,VWS V14.01,2013-01-15 05:23:00,
2013-01-14 23:28:00,11.9,9.5,30.31,South,181,6.0,8.0,90,0.00,,CLR,0.00,VWS V14.01,2013-01-15 05:28:00,
2013-01-14 23:33:00,12.1,9.5,30.31,SW,226,6.0,6.0,89,0.00,,CLR,0.00,VWS V14.01,2013-01-15 05:33:00,
2013-01-14 23:38:00,12.1,9.2,30.31,South,191,3.0,6.0,88,0.00,,CLR,0.00,VWS V14.01,2013-01-15 05:38:00,
2013-01-14 23:43:00,12.3,9.7,30.31,South,188,3.0,6.0,89,0.00,,CLR,0.00,VWS V14.01,2013-01-15 05:43:00,
2013-01-14 23:48:00,12.4,9.8,30.31,SSW,210,3.0,3.0,89,0.00,,CLR,0.00,VWS V14.01,2013-01-15 05:48:00,
2013-01-14 23:53:00,12.7,10.1,30.31,SSW,198,4.0,8.0,89,0.00,,CLR,0.00,VWS V14.01,2013-01-15 05:53:00,
2013-01-14 23:58:00,13.2,10.6,30.31,SW,215,3.0,5.0,89,0.00,,CLR,0.00,VWS V14.01,2013-01-15 05:58:00,